Terminal Aerodrome Forecast
Issued by NWS

Home | Current Version | Previous Version | Text Only | Print | Product List | Glossary On
Versions: 1 2 3 4 5 6 7 8 9 10 11 12 13 14 15 16 17 18 19 20 21 22
924
FTUS43 KILX 240807 AAA
TAFDEC
TAF AMD
KDEC 240807Z 2408/2506 05009KT 4SM -SHRA BR SCT008 OVC035
     FM240900 05009KT 3SM -SHRA BR OVC008
     FM241600 09009KT P6SM VCSH OVC008
     FM241900 10009KT P6SM VCTS OVC008CB
     FM242100 11010KT 4SM -SHRA BR VCTS OVC008CB
     FM250200 17013G23KT 4SM -SHRA BR OVC008 WS020/20040KT=

USA.gov is the U.S. government's official web portal to all federal, state and local government web resources and services.